UKLL/LWO METAR and TAF weather

Enter ICAO airport designator
Station Type Date Time Source
UKLL METAR 2021/04/14 20:00 UTC NOAA

UKLL 142000Z 29004MPS 9999 OVC004 01/00 Q1016 R31/290055 NOSIG


Station Type Date Time Source
UKLL Decoded METAR 2021/04/14 20:00 UTC NOAA

L'Viv, Ukraine (UKLL) 49-49N 023-57E 323M
Apr 14, 2021 - 04:00 PM EDT / 2021.04.14 2000 UTC
Wind: from the WNW (290 degrees) at 9 MPH (8 KT):0
Visibility: greater than 7 mile(s):0
Sky conditions: overcast
Temperature: 33 F (1 C)
Windchill: 24 F (-4 C):1
Dew Point: 32 F (0 C)
Relative Humidity: 93%
Pressure (altimeter): 30.00 in. Hg (1016 hPa)
ob: UKLL 142000Z 29004MPS 9999 OVC004 01/00 Q1016 R31/290055 NOSIG
cycle: 20

Station Type Date Time Source
UKLL TAF 2021/04/14 18:06 UTC NOAA

TAF UKLL 141703Z 1418/1518 29003MPS 4000 -SHRA BR BKN004 BKN020CB TX03/1513Z TN00/1503Z
TEMPO 1418/1506 32003MPS 0400 -SHRASN FG BKN001 BKN015CB
TEMPO 1506/1518 34003MPS 1100 SHRASN BKN002 BKN017CB

Example: see airport list